createdAt,value
2023-05-19T00:00:47.795Z,40.06
2023-05-19T00:01:45.210Z,40.11
2023-05-19T00:02:45.318Z,40.07
2023-05-19T00:03:45.261Z,40.08
2023-05-19T00:04:45.293Z,40.09
2023-05-19T00:05:45.412Z,40.07
2023-05-19T00:06:45.354Z,40.13
2023-05-19T00:07:45.388Z,40.04
2023-05-19T00:08:45.429Z,40.08
2023-05-19T00:09:45.454Z,40.08
2023-05-19T00:10:45.476Z,40.06
2023-05-19T00:11:45.522Z,40.02
2023-05-19T00:12:45.559Z,40.02
2023-05-19T00:13:45.584Z,40.13
2023-05-19T00:14:45.646Z,40.08
2023-05-19T00:15:45.804Z,40.12
2023-05-19T00:16:45.795Z,40.06
2023-05-19T00:17:45.794Z,40.07
2023-05-19T00:18:45.809Z,40.08
2023-05-19T00:19:45.802Z,40.07
2023-05-19T00:20:45.849Z,40.03
2023-05-19T00:21:45.897Z,40.06
2023-05-19T00:22:45.932Z,40.07
2023-05-19T00:23:45.971Z,40.07
2023-05-19T00:24:45.985Z,40.06
2023-05-19T00:25:46.035Z,40.04
2023-05-19T00:26:46.052Z,40.09
2023-05-19T00:27:46.086Z,40.07
2023-05-19T00:28:46.107Z,40.08
2023-05-19T00:29:46.135Z,40.08
2023-05-19T00:30:46.161Z,40.08
2023-05-19T00:31:46.242Z,40.09
2023-05-19T00:32:46.260Z,40.06
2023-05-19T00:33:46.248Z,40.03
2023-05-19T00:34:46.279Z,40.03
2023-05-19T00:35:46.311Z,40.10
2023-05-19T00:36:46.399Z,40.07
2023-05-19T00:37:46.362Z,40.04
2023-05-19T00:38:46.389Z,40.07
2023-05-19T00:39:46.405Z,40.09
2023-05-19T00:40:46.444Z,40.09
2023-05-19T00:41:46.471Z,40.01
2023-05-19T00:42:46.511Z,40.03
2023-05-19T00:43:46.523Z,40.08
2023-05-19T00:44:46.557Z,40.08
2023-05-19T00:45:46.585Z,40.12
2023-05-19T00:46:46.696Z,40.03
2023-05-19T00:47:46.679Z,40.08
2023-05-19T00:48:46.659Z,40.06
2023-05-19T00:49:46.683Z,40.04
2023-05-19T00:50:46.715Z,40.07
2023-05-19T00:51:46.820Z,40.05
2023-05-19T00:52:46.789Z,40.07
2023-05-19T00:53:46.793Z,40.04
2023-05-19T00:54:46.820Z,40.05
2023-05-19T00:55:46.860Z,40.04
2023-05-19T00:56:46.929Z,40.09
2023-05-19T00:57:47.050Z,40.08
2023-05-19T00:58:47.072Z,40.07
2023-05-19T00:59:47.147Z,40.01
2023-05-19T01:00:47.245Z,40.03
2023-05-19T01:01:47.298Z,40.08
2023-05-19T01:02:47.444Z,40.08
2023-05-19T01:03:47.521Z,40.01
2023-05-19T01:04:47.505Z,40.09
2023-05-19T01:05:47.580Z,40.08
2023-05-19T01:06:47.668Z,40.14
2023-05-19T01:07:47.727Z,40.05
2023-05-19T01:08:47.785Z,40.07
2023-05-19T01:09:47.854Z,40.07
2023-05-19T01:10:47.925Z,40.07
2023-05-19T01:11:48.010Z,40.07
2023-05-19T01:12:48.070Z,40.05
2023-05-19T01:13:48.213Z,40.07
2023-05-19T01:14:48.223Z,40.10
2023-05-19T01:15:48.288Z,40.09
2023-05-19T01:16:48.413Z,40.07
2023-05-19T01:17:48.437Z,40.03
2023-05-19T01:18:48.526Z,40.05
2023-05-19T01:19:48.569Z,40.05
2023-05-19T01:20:49.352Z,40.04
2023-05-19T01:21:48.737Z,40.04
2023-05-19T01:22:48.776Z,40.01
2023-05-19T01:23:48.849Z,40.05
2023-05-19T01:24:48.921Z,40.01
2023-05-19T01:25:48.988Z,40.05
2023-05-19T01:26:49.065Z,40.05
2023-05-19T01:27:49.156Z,40.01
2023-05-19T01:28:49.196Z,40.02
2023-05-19T01:29:49.255Z,40.02
2023-05-19T01:30:49.326Z,40.03
2023-05-19T01:31:49.468Z,39.97
2023-05-19T01:32:49.482Z,40.01
2023-05-19T01:33:49.503Z,39.99
2023-05-19T01:34:49.582Z,39.98
2023-05-19T01:35:49.696Z,39.97
2023-05-19T01:36:49.709Z,39.97
2023-05-19T01:37:49.770Z,39.95
2023-05-19T01:38:49.825Z,39.97
2023-05-19T01:39:49.884Z,39.93
2023-05-19T01:40:49.943Z,39.97
2023-05-19T01:41:50.005Z,39.95
2023-05-19T01:42:50.082Z,39.92
2023-05-19T01:43:50.128Z,39.89
2023-05-19T01:44:50.265Z,39.91
2023-05-19T01:45:50.255Z,39.92
2023-05-19T01:46:50.333Z,39.89
2023-05-19T01:47:50.382Z,39.91
2023-05-19T01:48:50.417Z,39.91
2023-05-19T01:49:50.476Z,39.89
2023-05-19T01:50:50.619Z,39.91
2023-05-19T01:51:50.598Z,39.86
2023-05-19T01:52:50.675Z,39.89
2023-05-19T01:53:50.801Z,39.88
2023-05-19T01:54:50.779Z,39.91
2023-05-19T01:55:50.832Z,39.89
2023-05-19T01:56:50.966Z,39.87
2023-05-19T01:57:50.958Z,39.88
2023-05-19T01:58:51.013Z,39.87
2023-05-19T01:59:51.077Z,39.88
2023-05-19T02:00:51.167Z,39.89
2023-05-19T02:01:51.196Z,39.84
2023-05-19T02:02:51.344Z,39.89
2023-05-19T02:03:51.341Z,39.89
2023-05-19T02:04:51.449Z,39.87
2023-05-19T02:05:51.424Z,39.84
2023-05-19T02:06:51.482Z,39.83
2023-05-19T02:07:51.535Z,39.89
2023-05-19T02:08:51.589Z,39.87
2023-05-19T02:09:51.659Z,39.83
2023-05-19T02:10:51.700Z,39.79
2023-05-19T02:11:51.767Z,39.82
2023-05-19T02:12:51.823Z,39.84
2023-05-19T02:13:51.880Z,39.79
2023-05-19T02:14:51.932Z,39.85
2023-05-19T02:15:52.007Z,39.86
2023-05-19T02:16:52.049Z,39.86
2023-05-19T02:17:52.221Z,39.85
2023-05-19T02:18:52.167Z,39.86
2023-05-19T02:19:52.216Z,39.82
2023-05-19T02:20:52.278Z,39.83
2023-05-19T02:21:52.348Z,39.85
2023-05-19T02:22:52.399Z,39.81
2023-05-19T02:23:52.433Z,39.83
2023-05-19T02:24:52.492Z,39.85
2023-05-19T02:25:52.554Z,39.82
2023-05-19T02:26:52.595Z,39.85
2023-05-19T02:27:52.649Z,39.79
2023-05-19T02:28:52.689Z,39.79
2023-05-19T02:29:52.750Z,39.82
2023-05-19T02:30:52.796Z,39.82
2023-05-19T02:31:52.888Z,39.80
2023-05-19T02:32:52.981Z,39.75
2023-05-19T02:33:52.961Z,39.77
2023-05-19T02:34:53.013Z,39.75
2023-05-19T02:35:53.075Z,39.77
2023-05-19T02:36:53.122Z,39.76
2023-05-19T02:37:53.218Z,39.79
2023-05-19T02:38:53.222Z,39.76
2023-05-19T02:39:53.283Z,39.81
2023-05-19T02:40:53.337Z,39.80
2023-05-19T02:41:53.395Z,39.76
2023-05-19T02:42:53.432Z,39.76
2023-05-19T02:43:53.477Z,39.75
2023-05-19T02:44:53.535Z,39.75
2023-05-19T02:45:53.616Z,39.74
2023-05-19T02:46:53.858Z,39.77
2023-05-19T02:47:53.754Z,39.73
2023-05-19T02:48:53.736Z,39.76
2023-05-19T02:49:53.780Z,39.76
2023-05-19T02:50:53.839Z,39.79
2023-05-19T02:51:53.898Z,39.80
2023-05-19T02:52:53.945Z,39.74
2023-05-19T02:53:53.990Z,39.73
2023-05-19T02:54:54.040Z,39.72
2023-05-19T02:55:54.093Z,39.73
2023-05-19T02:56:54.127Z,39.80
2023-05-19T02:57:54.183Z,39.75
2023-05-19T02:58:54.832Z,39.74
2023-05-19T02:59:54.290Z,39.74
2023-05-19T03:00:54.318Z,39.74
2023-05-19T03:01:54.405Z,39.75
2023-05-19T03:02:54.508Z,39.73
2023-05-19T03:03:54.608Z,39.78
2023-05-19T03:04:54.502Z,39.78
2023-05-19T03:05:54.556Z,39.76
2023-05-19T03:06:54.612Z,39.73
2023-05-19T03:07:54.650Z,39.70
2023-05-19T03:08:54.699Z,39.75
2023-05-19T03:09:54.768Z,39.74
2023-05-19T03:10:54.781Z,39.73
2023-05-19T03:11:54.835Z,39.73
2023-05-19T03:12:54.865Z,39.75
2023-05-19T03:13:54.919Z,39.76
2023-05-19T03:14:54.961Z,39.71
2023-05-19T03:15:55.046Z,39.73
2023-05-19T03:16:55.160Z,39.70
2023-05-19T03:17:55.143Z,39.70
2023-05-19T03:18:55.175Z,39.72
2023-05-19T03:19:55.192Z,39.72
2023-05-19T03:20:55.234Z,39.75
2023-05-19T03:21:55.293Z,39.76
2023-05-19T03:22:55.333Z,39.74
2023-05-19T03:23:55.423Z,39.73
2023-05-19T03:24:55.432Z,39.73
2023-05-19T03:25:55.468Z,39.73
2023-05-19T03:26:55.535Z,39.73
2023-05-19T03:27:55.578Z,39.69
2023-05-19T03:28:55.628Z,39.74
2023-05-19T03:29:55.682Z,39.69
2023-05-19T03:30:55.725Z,39.72
2023-05-19T03:31:55.785Z,39.70
2023-05-19T03:32:55.925Z,39.70
2023-05-19T03:33:55.880Z,39.72
2023-05-19T03:34:55.936Z,39.74
2023-05-19T03:35:55.984Z,39.70
2023-05-19T03:36:56.054Z,39.68
2023-05-19T03:37:56.859Z,39.74
2023-05-19T03:38:56.208Z,39.68
2023-05-19T03:39:56.194Z,39.67
2023-05-19T03:40:56.243Z,39.69
2023-05-19T03:41:56.350Z,39.67
2023-05-19T03:42:56.339Z,39.64
2023-05-19T03:43:56.389Z,39.68
2023-05-19T03:44:56.429Z,39.67
2023-05-19T03:45:56.522Z,39.69
2023-05-19T03:46:56.522Z,39.69
2023-05-19T03:47:56.605Z,39.69
2023-05-19T03:48:56.605Z,39.69
2023-05-19T03:49:56.649Z,39.64
2023-05-19T03:50:56.699Z,39.68
2023-05-19T03:51:56.751Z,39.70
2023-05-19T03:52:56.849Z,39.70
2023-05-19T03:53:56.828Z,39.70
2023-05-19T03:54:56.872Z,39.67
2023-05-19T03:55:56.926Z,39.64
2023-05-19T03:56:57.030Z,39.72
2023-05-19T03:57:57.080Z,39.67
2023-05-19T03:58:57.061Z,39.69
2023-05-19T03:59:57.105Z,39.67
2023-05-19T04:00:57.212Z,39.70
2023-05-19T04:01:57.242Z,39.72
2023-05-19T04:02:57.378Z,39.68
2023-05-19T04:03:57.337Z,39.62
2023-05-19T04:04:57.489Z,39.68
2023-05-19T04:05:57.372Z,39.64
2023-05-19T04:06:57.899Z,39.68
2023-05-19T04:07:57.471Z,39.70
2023-05-19T04:08:57.512Z,39.67
2023-05-19T04:09:57.565Z,39.68
2023-05-19T04:10:57.611Z,39.64
2023-05-19T04:11:57.656Z,39.70
2023-05-19T04:12:57.714Z,39.68
2023-05-19T04:13:57.749Z,39.67
2023-05-19T04:14:57.821Z,39.66
2023-05-19T04:15:57.907Z,39.68
2023-05-19T04:16:57.898Z,39.73
2023-05-19T04:17:58.001Z,39.66
2023-05-19T04:18:58.108Z,39.67
2023-05-19T04:19:58.063Z,39.64
2023-05-19T04:20:58.097Z,39.67
2023-05-19T04:21:58.147Z,39.67
2023-05-19T04:22:58.202Z,39.67
2023-05-19T04:23:58.253Z,39.67
2023-05-19T04:24:58.300Z,39.66
2023-05-19T04:25:58.346Z,39.70
2023-05-19T04:26:58.385Z,39.64
2023-05-19T04:27:58.438Z,39.67
2023-05-19T04:28:58.475Z,39.70
2023-05-19T04:29:58.528Z,39.63
2023-05-19T04:30:58.706Z,39.66
2023-05-19T04:31:58.617Z,39.64
2023-05-19T04:32:58.674Z,39.68
2023-05-19T04:33:58.707Z,39.67
2023-05-19T04:34:58.826Z,39.67
2023-05-19T04:35:58.799Z,39.66
2023-05-19T04:36:58.845Z,39.67
2023-05-19T04:37:58.896Z,39.68
2023-05-19T04:38:58.942Z,39.70
2023-05-19T04:39:58.988Z,39.66
2023-05-19T04:40:59.113Z,39.68
2023-05-19T04:41:59.078Z,39.66
2023-05-19T04:42:59.151Z,39.66
2023-05-19T04:43:59.172Z,39.71
2023-05-19T04:44:59.212Z,39.63
2023-05-19T04:45:59.257Z,39.62
2023-05-19T04:46:59.333Z,39.66
2023-05-19T04:47:59.381Z,39.62
2023-05-19T04:48:59.471Z,39.65
2023-05-19T04:49:59.463Z,39.64
2023-05-19T04:50:59.504Z,39.63
2023-05-19T04:51:59.557Z,39.61
2023-05-19T04:52:59.602Z,39.63
2023-05-19T04:53:59.656Z,39.64
2023-05-19T04:54:59.693Z,39.63
2023-05-19T04:55:59.742Z,39.66
2023-05-19T04:56:59.793Z,39.66
2023-05-19T04:57:59.843Z,39.64
2023-05-19T04:58:59.886Z,39.69
2023-05-19T04:59:59.933Z,39.63
2023-05-19T05:00:59.982Z,39.61
2023-05-19T05:02:00.092Z,39.64
2023-05-19T05:03:00.235Z,39.63
2023-05-19T05:04:00.189Z,39.61
2023-05-19T05:05:00.218Z,39.60
2023-05-19T05:06:00.222Z,39.62
2023-05-19T05:07:00.383Z,39.59
2023-05-19T05:08:00.343Z,39.66
2023-05-19T05:09:00.359Z,39.61
2023-05-19T05:10:00.405Z,39.65
2023-05-19T05:11:00.458Z,39.66
2023-05-19T05:12:00.510Z,39.60
2023-05-19T05:13:00.562Z,39.63
2023-05-19T05:14:00.605Z,39.63
2023-05-19T05:15:00.653Z,39.63
2023-05-19T05:16:00.768Z,39.65
2023-05-19T05:17:00.763Z,39.65
2023-05-19T05:18:01.078Z,39.66
2023-05-19T05:19:00.890Z,39.66
2023-05-19T05:20:01.030Z,39.60
2023-05-19T05:21:00.968Z,39.65
2023-05-19T05:22:01.098Z,39.64
2023-05-19T05:23:01.076Z,39.63
2023-05-19T05:24:01.105Z,39.63
2023-05-19T05:25:01.155Z,39.60
2023-05-19T05:26:01.216Z,39.60
2023-05-19T05:27:01.256Z,39.60
2023-05-19T05:28:01.308Z,39.60
2023-05-19T05:29:01.358Z,39.58
2023-05-19T05:30:01.396Z,39.58
2023-05-19T05:31:01.456Z,39.59
2023-05-19T05:32:01.516Z,39.59
2023-05-19T05:33:01.631Z,39.59
2023-05-19T05:34:01.597Z,39.58
2023-05-19T05:35:01.653Z,39.59
2023-05-19T05:36:01.687Z,39.59
2023-05-19T05:37:01.735Z,39.58
2023-05-19T05:38:01.848Z,39.57
2023-05-19T05:39:01.821Z,39.54
2023-05-19T05:40:01.893Z,39.57
2023-05-19T05:41:01.922Z,39.58
2023-05-19T05:42:01.972Z,39.59
2023-05-19T05:43:02.016Z,39.59
2023-05-19T05:44:02.161Z,39.54
2023-05-19T05:45:02.110Z,39.54
2023-05-19T05:46:02.238Z,39.55
2023-05-19T05:47:02.214Z,39.58
2023-05-19T05:48:02.335Z,39.57
2023-05-19T05:49:02.281Z,39.55
2023-05-19T05:50:02.320Z,39.58
2023-05-19T05:51:02.372Z,39.54
2023-05-19T05:52:06.137Z,39.55
2023-05-19T05:53:02.424Z,39.50
2023-05-19T05:54:02.448Z,39.55
2023-05-19T05:55:02.487Z,39.57
2023-05-19T05:56:02.500Z,39.52
2023-05-19T05:57:03.405Z,39.54
2023-05-19T05:58:02.550Z,39.57
2023-05-19T05:59:02.576Z,39.52
2023-05-19T06:00:02.610Z,39.54
2023-05-19T06:01:02.626Z,39.52
2023-05-19T06:02:02.711Z,39.56
2023-05-19T06:03:02.820Z,39.52
2023-05-19T06:04:02.721Z,39.47
2023-05-19T06:05:02.770Z,39.49
2023-05-19T06:06:02.975Z,39.52
2023-05-19T06:07:02.754Z,39.49
2023-05-19T06:08:02.779Z,39.54
2023-05-19T06:09:02.814Z,39.52
2023-05-19T06:10:02.800Z,39.46
2023-05-19T06:11:02.824Z,39.45
2023-05-19T06:12:02.862Z,39.42
2023-05-19T06:13:02.878Z,39.46
2023-05-19T06:14:02.894Z,39.45
2023-05-19T06:15:02.947Z,39.45
2023-05-19T06:16:03.000Z,39.49
2023-05-19T06:17:02.965Z,39.50
2023-05-19T06:18:03.018Z,39.44
2023-05-19T06:19:03.083Z,39.47
2023-05-19T06:20:03.046Z,39.50
2023-05-19T06:21:03.071Z,39.43
2023-05-19T06:22:03.108Z,39.46
2023-05-19T06:23:03.152Z,39.45
2023-05-19T06:24:03.177Z,39.41
2023-05-19T06:25:03.198Z,39.49
2023-05-19T06:26:03.216Z,39.44
2023-05-19T06:27:03.250Z,39.44
2023-05-19T06:28:03.272Z,39.45
2023-05-19T06:29:03.374Z,39.45
2023-05-19T06:30:03.338Z,39.43
2023-05-19T06:31:03.416Z,39.40
2023-05-19T06:32:03.412Z,39.40
2023-05-19T06:33:03.562Z,39.42
2023-05-19T06:34:03.474Z,39.40
2023-05-19T06:35:03.533Z,39.40
2023-05-19T06:36:03.550Z,39.40
2023-05-19T06:37:03.920Z,39.41
2023-05-19T06:38:03.621Z,39.39
2023-05-19T06:39:03.633Z,39.43
2023-05-19T06:40:03.804Z,39.39
2023-05-19T06:41:03.709Z,39.37
2023-05-19T06:42:03.757Z,39.37
2023-05-19T06:43:03.763Z,39.39
2023-05-19T06:44:06.413Z,39.34
2023-05-19T06:45:04.416Z,39.34
2023-05-19T06:46:04.092Z,39.33
2023-05-19T06:47:04.205Z,39.35
2023-05-19T06:48:04.324Z,39.39
2023-05-19T06:49:04.302Z,39.31
2023-05-19T06:50:04.345Z,39.36
2023-05-19T06:51:04.281Z,39.27
2023-05-19T06:52:04.325Z,39.31
2023-05-19T06:53:04.484Z,39.32
2023-05-19T06:54:04.437Z,39.27
2023-05-19T06:55:04.438Z,39.30
2023-05-19T06:56:04.482Z,39.31
2023-05-19T06:57:04.508Z,39.29
2023-05-19T06:58:04.552Z,39.29
2023-05-19T06:59:04.573Z,39.25
2023-05-19T07:00:04.606Z,39.27
2023-05-19T07:01:04.649Z,39.29
2023-05-19T07:02:04.820Z,39.27
2023-05-19T07:03:04.746Z,39.28
2023-05-19T07:04:04.790Z,39.24
2023-05-19T07:05:04.837Z,39.27
2023-05-19T07:06:07.732Z,39.24
2023-05-19T07:07:04.834Z,39.19
2023-05-19T07:08:04.858Z,39.22
2023-05-19T07:09:04.885Z,39.17
2023-05-19T07:10:04.998Z,39.20
2023-05-19T07:11:04.940Z,39.21
2023-05-19T07:12:04.969Z,39.21
2023-05-19T07:13:04.988Z,39.17
2023-05-19T07:14:05.930Z,39.17
2023-05-19T07:15:05.109Z,39.21
2023-05-19T07:16:05.102Z,39.14
2023-05-19T07:17:05.109Z,39.17
2023-05-19T07:18:05.176Z,39.13
2023-05-19T07:19:05.230Z,39.14
2023-05-19T07:20:05.165Z,39.14
2023-05-19T07:21:05.200Z,39.12
2023-05-19T07:22:05.216Z,39.18
2023-05-19T07:23:05.264Z,39.13
2023-05-19T07:24:05.264Z,39.12
2023-05-19T07:25:05.286Z,39.11
2023-05-19T07:26:05.310Z,39.16
2023-05-19T07:27:05.325Z,39.07
2023-05-19T07:28:05.340Z,39.12
2023-05-19T07:29:05.356Z,39.12
2023-05-19T07:30:05.383Z,39.11
2023-05-19T07:31:05.405Z,39.08
2023-05-19T07:32:05.477Z,39.09
2023-05-19T07:33:05.524Z,39.10
2023-05-19T07:34:05.481Z,39.06
2023-05-19T07:35:05.501Z,39.10
2023-05-19T07:36:05.538Z,39.06
2023-05-19T07:37:05.550Z,39.06
2023-05-19T07:38:05.587Z,39.10
2023-05-19T07:39:05.697Z,39.05
2023-05-19T07:40:05.631Z,39.05
2023-05-19T07:41:05.670Z,39.08
2023-05-19T07:42:05.665Z,39.05
2023-05-19T07:43:05.699Z,39.06
2023-05-19T07:44:05.722Z,39.04
2023-05-19T07:45:05.732Z,39.05
2023-05-19T07:46:05.821Z,39.02
2023-05-19T07:47:05.782Z,39.02
2023-05-19T07:48:05.970Z,39.03
2023-05-19T07:49:05.829Z,39.00
2023-05-19T07:50:05.843Z,38.99
2023-05-19T07:51:06.427Z,39.00
2023-05-19T07:52:06.006Z,38.97
2023-05-19T07:53:06.018Z,39.02
2023-05-19T07:54:06.064Z,39.01
2023-05-19T07:55:06.045Z,38.98
2023-05-19T07:56:05.975Z,38.96
2023-05-19T07:57:06.072Z,38.97
2023-05-19T07:58:06.052Z,38.95
2023-05-19T07:59:06.070Z,38.95
2023-05-19T08:00:06.053Z,38.92
2023-05-19T08:01:06.085Z,38.91
2023-05-19T08:02:06.121Z,38.93
2023-05-19T08:03:06.308Z,38.95
2023-05-19T08:04:06.200Z,38.91
2023-05-19T08:05:06.144Z,38.90
2023-05-19T08:06:06.166Z,38.89
2023-05-19T08:07:06.446Z,38.93
2023-05-19T08:08:06.200Z,38.90
2023-05-19T08:09:06.233Z,38.94
2023-05-19T08:10:06.260Z,38.90
2023-05-19T08:11:06.272Z,38.94
2023-05-19T08:12:06.940Z,38.90
2023-05-19T08:13:06.317Z,38.95
2023-05-19T08:14:06.434Z,38.89
2023-05-19T08:15:06.360Z,38.91
2023-05-19T08:16:06.516Z,38.92
2023-05-19T08:17:06.407Z,38.90
2023-05-19T08:18:06.558Z,38.92
2023-05-19T08:19:06.480Z,38.92
2023-05-19T08:20:06.464Z,38.89
2023-05-19T08:21:06.497Z,38.89
2023-05-19T08:22:06.520Z,38.90
2023-05-19T08:23:06.568Z,38.87
2023-05-19T08:24:06.641Z,38.87
2023-05-19T08:25:06.708Z,38.89
2023-05-19T08:26:06.805Z,38.84
2023-05-19T08:27:06.902Z,38.80
2023-05-19T08:28:06.985Z,38.84
2023-05-19T08:29:07.080Z,38.81
2023-05-19T08:30:07.186Z,38.83
2023-05-19T08:31:07.245Z,38.84
2023-05-19T08:32:07.318Z,38.78
2023-05-19T08:33:07.461Z,38.83
2023-05-19T08:34:07.470Z,38.80
2023-05-19T08:35:07.555Z,38.78
2023-05-19T08:36:07.631Z,38.79
2023-05-19T08:37:07.717Z,38.77
2023-05-19T08:38:07.791Z,38.75
2023-05-19T08:39:07.887Z,38.79
2023-05-19T08:40:07.972Z,38.81
2023-05-19T08:41:08.080Z,38.77
2023-05-19T08:42:08.260Z,38.76
2023-05-19T08:43:08.269Z,38.76
2023-05-19T08:44:08.364Z,38.77
2023-05-19T08:45:08.520Z,38.79
2023-05-19T08:46:08.649Z,38.69
2023-05-19T08:47:08.715Z,38.76
2023-05-19T08:48:08.762Z,38.74
2023-05-19T08:49:08.811Z,38.71
2023-05-19T08:50:08.894Z,38.75
2023-05-19T08:51:08.983Z,38.73
2023-05-19T08:52:09.075Z,38.71
2023-05-19T08:53:18.115Z,38.74
2023-05-19T08:54:10.187Z,38.75
2023-05-19T08:55:09.196Z,38.72
2023-05-19T08:56:09.229Z,38.72
2023-05-19T08:57:09.306Z,38.71
2023-05-19T08:58:09.256Z,38.78
2023-05-19T08:59:09.283Z,38.69
2023-05-19T09:00:09.295Z,38.71
2023-05-19T09:01:09.358Z,38.67
2023-05-19T09:02:09.332Z,38.71
2023-05-19T09:04:09.511Z,38.72
2023-05-19T09:05:09.678Z,38.73
2023-05-19T09:06:09.688Z,38.70
2023-05-19T09:07:09.737Z,38.69
2023-05-19T09:08:09.814Z,38.69
2023-05-19T09:09:09.900Z,38.70
2023-05-19T09:10:09.987Z,38.63
2023-05-19T09:11:10.153Z,38.64
2023-05-19T09:12:10.161Z,38.67
2023-05-19T09:13:10.267Z,38.63
2023-05-19T09:14:10.337Z,38.67
2023-05-19T09:15:10.399Z,38.67
2023-05-19T09:16:10.573Z,38.67
2023-05-19T09:17:10.605Z,38.67
2023-05-19T09:18:10.766Z,38.73
2023-05-19T09:19:10.782Z,38.70
2023-05-19T09:20:10.828Z,38.71
2023-05-19T09:21:10.916Z,38.67
2023-05-19T09:22:10.983Z,38.64
2023-05-19T09:23:11.066Z,38.65
2023-05-19T09:24:11.151Z,38.70
2023-05-19T09:25:11.292Z,38.67
2023-05-19T09:26:11.332Z,38.63
2023-05-19T09:27:11.398Z,38.66
2023-05-19T09:28:11.475Z,38.67
2023-05-19T09:29:11.559Z,38.66
2023-05-19T09:30:11.641Z,38.60
2023-05-19T09:31:11.748Z,38.59
2023-05-19T09:32:11.857Z,38.64
2023-05-19T09:33:11.927Z,38.64
2023-05-19T09:34:11.955Z,38.61
2023-05-19T09:35:12.064Z,38.65
2023-05-19T09:36:12.111Z,38.64
2023-05-19T09:37:12.189Z,38.64
2023-05-19T09:38:12.260Z,38.61
2023-05-19T09:39:12.340Z,38.59
2023-05-19T09:40:13.083Z,38.61
2023-05-19T09:41:12.486Z,38.61
2023-05-19T09:42:12.558Z,38.59
2023-05-19T09:43:12.634Z,38.60
2023-05-19T09:44:12.789Z,38.57
2023-05-19T09:45:12.784Z,38.60
2023-05-19T09:46:14.497Z,38.58
2023-05-19T09:47:12.924Z,38.59
2023-05-19T09:48:13.121Z,38.58
2023-05-19T09:49:13.071Z,38.59
2023-05-19T09:50:13.194Z,38.57
2023-05-19T09:51:13.252Z,38.58
2023-05-19T09:52:13.301Z,38.58
2023-05-19T09:53:13.373Z,38.57
2023-05-19T09:54:13.437Z,38.58
2023-05-19T09:55:13.609Z,38.59
2023-05-19T09:56:13.594Z,38.59
2023-05-19T09:57:13.676Z,38.57
2023-05-19T09:58:13.729Z,38.55
2023-05-19T09:59:14.476Z,38.58
2023-05-19T10:00:13.880Z,38.55
2023-05-19T10:01:14.061Z,38.62
2023-05-19T10:02:14.011Z,38.52
2023-05-19T10:03:14.151Z,38.57
2023-05-19T10:04:14.160Z,38.58
2023-05-19T10:05:14.336Z,38.53
2023-05-19T10:06:14.327Z,38.57
2023-05-19T10:07:14.436Z,38.55
2023-05-19T10:08:14.445Z,38.55
2023-05-19T10:09:14.540Z,38.53
2023-05-19T10:10:14.586Z,38.57
2023-05-19T10:11:14.632Z,38.56
2023-05-19T10:12:14.708Z,38.56
2023-05-19T10:13:14.771Z,38.57
2023-05-19T10:14:14.841Z,38.55
2023-05-19T10:15:14.919Z,38.56
2023-05-19T10:16:14.998Z,38.56
2023-05-19T10:17:15.054Z,38.59
2023-05-19T10:18:15.123Z,38.53
2023-05-19T10:19:15.213Z,38.59
2023-05-19T10:20:15.285Z,38.57
2023-05-19T10:21:15.330Z,38.57
2023-05-19T10:22:15.455Z,38.57
2023-05-19T10:23:15.470Z,38.56
2023-05-19T10:24:15.530Z,38.56
2023-05-19T10:25:15.606Z,38.58
2023-05-19T10:26:15.722Z,38.57
2023-05-19T10:27:15.754Z,38.56
2023-05-19T10:28:15.807Z,38.56
2023-05-19T10:29:15.883Z,38.57
2023-05-19T10:30:16.585Z,38.57
2023-05-19T10:31:16.018Z,38.55
2023-05-19T10:32:16.141Z,38.55
2023-05-19T10:33:16.187Z,38.59
2023-05-19T10:34:16.230Z,38.54
2023-05-19T10:35:16.377Z,38.52
2023-05-19T10:36:16.405Z,38.54
2023-05-19T10:37:16.388Z,38.54
2023-05-19T10:38:16.448Z,38.51
2023-05-19T10:39:16.517Z,38.55
2023-05-19T10:40:16.573Z,38.55
2023-05-19T10:41:16.669Z,38.49
2023-05-19T10:42:16.722Z,38.54
2023-05-19T10:43:16.773Z,38.49
2023-05-19T10:44:16.830Z,38.50
2023-05-19T10:45:16.891Z,38.51
2023-05-19T10:46:16.994Z,38.45
2023-05-19T10:47:17.101Z,38.51
2023-05-19T10:48:17.988Z,38.47
2023-05-19T10:49:17.135Z,38.49
2023-05-19T10:50:17.270Z,38.49
2023-05-19T10:51:17.332Z,38.49
2023-05-19T10:52:17.322Z,38.50
2023-05-19T10:53:17.373Z,38.50
2023-05-19T10:54:17.592Z,38.48
2023-05-19T10:55:17.668Z,38.47
2023-05-19T10:56:17.560Z,38.50
2023-05-19T10:57:17.657Z,38.44
2023-05-19T10:58:18.495Z,38.49
2023-05-19T10:59:17.738Z,38.52
2023-05-19T11:00:17.800Z,38.50
2023-05-19T11:01:17.909Z,38.49
2023-05-19T11:02:18.048Z,38.51
2023-05-19T11:03:17.996Z,38.47
2023-05-19T11:04:18.083Z,38.51
2023-05-19T11:05:18.100Z,38.44
2023-05-19T11:06:18.168Z,38.46
2023-05-19T11:07:18.212Z,38.50
2023-05-19T11:08:18.282Z,38.46
2023-05-19T11:09:19.486Z,38.47
2023-05-19T11:10:18.524Z,38.47
2023-05-19T11:11:18.595Z,38.46
2023-05-19T11:12:18.625Z,38.46
2023-05-19T11:13:18.674Z,38.47
2023-05-19T11:14:18.734Z,38.51
2023-05-19T11:15:18.778Z,38.46
2023-05-19T11:16:18.876Z,38.46
2023-05-19T11:17:18.890Z,38.51
2023-05-19T11:18:19.004Z,38.48
2023-05-19T11:19:19.041Z,38.50
2023-05-19T11:20:19.053Z,38.52
2023-05-19T11:21:19.130Z,38.53
2023-05-19T11:22:19.180Z,38.52
2023-05-19T11:23:19.256Z,38.45
2023-05-19T11:24:19.275Z,38.56
2023-05-19T11:25:19.329Z,38.53
2023-05-19T11:26:19.383Z,38.54
2023-05-19T11:27:19.444Z,38.51
2023-05-19T11:28:19.826Z,38.53
2023-05-19T11:29:19.555Z,38.51
2023-05-19T11:30:19.613Z,38.57
2023-05-19T11:31:19.682Z,38.57
2023-05-19T11:32:19.813Z,38.50
2023-05-19T11:33:20.003Z,38.50
2023-05-19T11:34:19.841Z,38.57
2023-05-19T11:35:19.901Z,38.51
2023-05-19T11:36:19.957Z,38.55
2023-05-19T11:37:20.023Z,38.56
2023-05-19T11:38:20.082Z,38.57
2023-05-19T11:39:20.209Z,38.53
2023-05-19T11:40:20.276Z,38.53
2023-05-19T11:41:20.930Z,38.57
2023-05-19T11:42:20.430Z,38.56
2023-05-19T11:43:20.386Z,38.58
2023-05-19T11:44:20.440Z,38.58
2023-05-19T11:45:20.499Z,38.57
2023-05-19T11:46:20.588Z,38.60
2023-05-19T11:47:20.624Z,38.59
2023-05-19T11:48:20.726Z,38.55
2023-05-19T11:49:20.769Z,38.60
2023-05-19T11:50:20.842Z,38.58
2023-05-19T11:51:20.881Z,38.62
2023-05-19T11:52:20.938Z,38.59
2023-05-19T11:53:21.086Z,38.55
2023-05-19T11:54:21.056Z,38.60
2023-05-19T11:55:22.032Z,38.62
2023-05-19T11:56:21.179Z,38.64
2023-05-19T11:57:21.237Z,38.64
2023-05-19T11:58:21.321Z,38.60
2023-05-19T11:59:21.364Z,38.61
2023-05-19T12:00:21.418Z,38.60
2023-05-19T12:01:21.479Z,38.61
2023-05-19T12:02:21.592Z,38.60
2023-05-19T12:03:21.846Z,38.64
2023-05-19T12:04:21.651Z,38.62
2023-05-19T12:05:21.808Z,38.61
2023-05-19T12:06:21.815Z,38.65
2023-05-19T12:07:21.834Z,38.59
2023-05-19T12:08:21.898Z,38.58
2023-05-19T12:09:21.932Z,38.60
2023-05-19T12:10:22.003Z,38.59
2023-05-19T12:11:23.021Z,38.59
2023-05-19T12:12:22.112Z,38.60
2023-05-19T12:13:22.154Z,38.62
2023-05-19T12:14:22.216Z,38.59
2023-05-19T12:15:22.286Z,38.60
2023-05-19T12:16:22.388Z,38.60
2023-05-19T12:17:22.405Z,38.58
2023-05-19T12:18:22.467Z,38.58
2023-05-19T12:19:22.591Z,38.57
2023-05-19T12:20:22.577Z,38.61
2023-05-19T12:21:23.544Z,38.60
2023-05-19T12:22:23.652Z,38.61
2023-05-19T12:23:22.680Z,38.60
2023-05-19T12:24:22.701Z,38.58
2023-05-19T12:25:22.749Z,38.62
2023-05-19T12:26:22.756Z,38.60
2023-05-19T12:27:22.798Z,38.57
2023-05-19T12:28:22.802Z,38.58
2023-05-19T12:29:22.832Z,38.55
2023-05-19T12:30:22.849Z,38.58
2023-05-19T12:31:22.934Z,38.57
2023-05-19T12:32:22.930Z,38.55
2023-05-19T12:33:22.927Z,38.58
2023-05-19T12:34:22.949Z,38.55
2023-05-19T12:35:22.961Z,38.56
2023-05-19T12:36:22.979Z,38.56
2023-05-19T12:37:23.007Z,38.60
2023-05-19T12:38:23.033Z,38.60
2023-05-19T12:39:23.059Z,38.57
2023-05-19T12:40:23.097Z,38.57
2023-05-19T12:41:23.097Z,38.55
2023-05-19T12:42:23.116Z,38.55
2023-05-19T12:43:23.144Z,38.62
2023-05-19T12:44:23.161Z,38.61
2023-05-19T12:45:23.185Z,38.60
2023-05-19T12:46:23.314Z,38.55
2023-05-19T12:47:23.376Z,38.60
2023-05-19T12:48:23.273Z,38.60
2023-05-19T12:49:23.322Z,38.58
2023-05-19T12:50:23.306Z,38.57
2023-05-19T12:51:23.340Z,38.61
2023-05-19T12:52:23.367Z,38.60
2023-05-19T12:53:23.382Z,38.60
2023-05-19T12:54:23.441Z,38.57